sensor_id;sensor_type;location;lat;lon;timestamp;temperature;humidity
73780;SHT30;62093;37.614;15.072;2022-10-20T00:01:36;20.25;64.20
73780;SHT30;62093;37.614;15.072;2022-10-20T00:04:02;20.24;63.98
73780;SHT30;62093;37.614;15.072;2022-10-20T00:06:30;20.25;63.68
73780;SHT30;62093;37.614;15.072;2022-10-20T00:08:58;20.22;63.91
73780;SHT30;62093;37.614;15.072;2022-10-20T00:11:26;20.21;63.85
73780;SHT30;62093;37.614;15.072;2022-10-20T00:13:52;20.22;63.69
73780;SHT30;62093;37.614;15.072;2022-10-20T00:16:20;20.24;63.91
73780;SHT30;62093;37.614;15.072;2022-10-20T00:18:46;20.20;63.99
73780;SHT30;62093;37.614;15.072;2022-10-20T00:21:18;20.22;64.18
73780;SHT30;62093;37.614;15.072;2022-10-20T00:23:44;20.22;64.01
73780;SHT30;62093;37.614;15.072;2022-10-20T00:26:13;20.24;64.18
73780;SHT30;62093;37.614;15.072;2022-10-20T00:28:40;20.25;63.96
73780;SHT30;62093;37.614;15.072;2022-10-20T00:31:06;20.24;63.95
73780;SHT30;62093;37.614;15.072;2022-10-20T00:33:33;20.22;64.07
73780;SHT30;62093;37.614;15.072;2022-10-20T00:36:04;20.25;63.94
73780;SHT30;62093;37.614;15.072;2022-10-20T00:38:30;20.24;64.27
73780;SHT30;62093;37.614;15.072;2022-10-20T00:40:57;20.20;64.22
73780;SHT30;62093;37.614;15.072;2022-10-20T00:43:53;20.20;63.82
73780;SHT30;62093;37.614;15.072;2022-10-20T00:48:59;20.21;64.14
73780;SHT30;62093;37.614;15.072;2022-10-20T00:51:28;20.21;64.03
73780;SHT30;62093;37.614;15.072;2022-10-20T00:54:24;20.18;63.56
73780;SHT30;62093;37.614;15.072;2022-10-20T00:56:53;20.21;63.87
73780;SHT30;62093;37.614;15.072;2022-10-20T00:59:22;20.21;63.88
73780;SHT30;62093;37.614;15.072;2022-10-20T01:01:50;20.20;64.15
73780;SHT30;62093;37.614;15.072;2022-10-20T01:04:16;20.20;64.27
73780;SHT30;62093;37.614;15.072;2022-10-20T01:06:43;20.20;64.18
73780;SHT30;62093;37.614;15.072;2022-10-20T01:09:09;20.20;63.96
73780;SHT30;62093;37.614;15.072;2022-10-20T01:12:02;20.20;63.86
73780;SHT30;62093;37.614;15.072;2022-10-20T01:25:38;20.15;64.23
73780;SHT30;62093;37.614;15.072;2022-10-20T01:28:22;20.14;64.33
73780;SHT30;62093;37.614;15.072;2022-10-20T01:30:57;20.18;63.98
73780;SHT30;62093;37.614;15.072;2022-10-20T01:34:21;20.14;64.20
73780;SHT30;62093;37.614;15.072;2022-10-20T01:39:25;20.17;64.26
73780;SHT30;62093;37.614;15.072;2022-10-20T01:42:00;20.13;64.07
73780;SHT30;62093;37.614;15.072;2022-10-20T01:44:29;20.14;63.93
73780;SHT30;62093;37.614;15.072;2022-10-20T01:46:57;20.14;63.75
73780;SHT30;62093;37.614;15.072;2022-10-20T01:49:24;20.15;64.01
73780;SHT30;62093;37.614;15.072;2022-10-20T01:51:52;20.13;63.99
73780;SHT30;62093;37.614;15.072;2022-10-20T01:54:20;20.15;63.88
73780;SHT30;62093;37.614;15.072;2022-10-20T02:11:01;20.15;64.07
73780;SHT30;62093;37.614;15.072;2022-10-20T02:13:29;20.15;64.09
73780;SHT30;62093;37.614;15.072;2022-10-20T02:15:57;20.14;63.89
73780;SHT30;62093;37.614;15.072;2022-10-20T02:18:34;20.11;63.62
73780;SHT30;62093;37.614;15.072;2022-10-20T02:21:04;20.14;64.20
73780;SHT30;62093;37.614;15.072;2022-10-20T02:23:34;20.15;64.10
73780;SHT30;62093;37.614;15.072;2022-10-20T02:26:05;20.17;63.93
73780;SHT30;62093;37.614;15.072;2022-10-20T02:28:34;20.10;63.59
73780;SHT30;62093;37.614;15.072;2022-10-20T02:31:03;20.14;64.05
73780;SHT30;62093;37.614;15.072;2022-10-20T02:33:30;20.15;64.05
73780;SHT30;62093;37.614;15.072;2022-10-20T02:35:58;20.14;64.05
73780;SHT30;62093;37.614;15.072;2022-10-20T02:38:24;20.13;64.05
73780;SHT30;62093;37.614;15.072;2022-10-20T02:40:51;20.15;63.91
73780;SHT30;62093;37.614;15.072;2022-10-20T02:43:17;20.11;63.76
73780;SHT30;62093;37.614;15.072;2022-10-20T02:45:43;20.15;63.98
73780;SHT30;62093;37.614;15.072;2022-10-20T02:48:12;20.15;63.76
73780;SHT30;62093;37.614;15.072;2022-10-20T02:50:38;20.14;64.21
73780;SHT30;62093;37.614;15.072;2022-10-20T02:53:04;20.11;64.07
73780;SHT30;62093;37.614;15.072;2022-10-20T02:55:31;20.17;64.22
73780;SHT30;62093;37.614;15.072;2022-10-20T02:57:57;20.11;64.12
73780;SHT30;62093;37.614;15.072;2022-10-20T03:00:23;20.10;64.02
73780;SHT30;62093;37.614;15.072;2022-10-20T03:02:54;20.04;63.81
73780;SHT30;62093;37.614;15.072;2022-10-20T03:05:20;20.04;64.37
73780;SHT30;62093;37.614;15.072;2022-10-20T03:07:46;20.04;64.60
73780;SHT30;62093;37.614;15.072;2022-10-20T03:10:13;20.07;64.28
73780;SHT30;62093;37.614;15.072;2022-10-20T03:12:39;20.07;64.39
73780;SHT30;62093;37.614;15.072;2022-10-20T03:15:05;20.05;64.45
73780;SHT30;62093;37.614;15.072;2022-10-20T03:17:31;20.05;64.38
73780;SHT30;62093;37.614;15.072;2022-10-20T03:19:58;20.07;64.35
73780;SHT30;62093;37.614;15.072;2022-10-20T03:22:24;20.04;64.36
73780;SHT30;62093;37.614;15.072;2022-10-20T03:24:50;20.07;64.43
73780;SHT30;62093;37.614;15.072;2022-10-20T03:27:16;20.07;64.26
73780;SHT30;62093;37.614;15.072;2022-10-20T03:29:44;20.03;64.33
73780;SHT30;62093;37.614;15.072;2022-10-20T03:32:10;20.05;64.17
73780;SHT30;62093;37.614;15.072;2022-10-20T03:34:36;20.07;64.41
73780;SHT30;62093;37.614;15.072;2022-10-20T03:37:02;20.07;64.33
73780;SHT30;62093;37.614;15.072;2022-10-20T03:39:28;20.04;63.93
73780;SHT30;62093;37.614;15.072;2022-10-20T03:41:54;20.04;64.49
73780;SHT30;62093;37.614;15.072;2022-10-20T03:44:22;20.07;64.01
73780;SHT30;62093;37.614;15.072;2022-10-20T03:46:48;20.03;64.28
73780;SHT30;62093;37.614;15.072;2022-10-20T03:49:14;20.01;64.32
73780;SHT30;62093;37.614;15.072;2022-10-20T03:51:40;20.00;64.42
73780;SHT30;62093;37.614;15.072;2022-10-20T03:54:08;19.98;64.16
73780;SHT30;62093;37.614;15.072;2022-10-20T03:56:34;19.98;64.37
73780;SHT30;62093;37.614;15.072;2022-10-20T03:59:00;20.00;64.28
73780;SHT30;62093;37.614;15.072;2022-10-20T04:01:29;20.03;64.41
73780;SHT30;62093;37.614;15.072;2022-10-20T04:03:56;19.98;64.34
73780;SHT30;62093;37.614;15.072;2022-10-20T04:06:25;20.01;64.38
73780;SHT30;62093;37.614;15.072;2022-10-20T04:08:54;19.97;64.25
73780;SHT30;62093;37.614;15.072;2022-10-20T04:11:20;19.98;64.28
73780;SHT30;62093;37.614;15.072;2022-10-20T04:13:46;19.95;64.36
73780;SHT30;62093;37.614;15.072;2022-10-20T04:16:12;19.97;64.30
73780;SHT30;62093;37.614;15.072;2022-10-20T04:18:38;19.97;64.28
73780;SHT30;62093;37.614;15.072;2022-10-20T04:21:04;20.00;64.46
73780;SHT30;62093;37.614;15.072;2022-10-20T04:23:31;20.01;63.84
73780;SHT30;62093;37.614;15.072;2022-10-20T04:25:57;20.00;64.05
73780;SHT30;62093;37.614;15.072;2022-10-20T04:28:23;20.01;64.36
73780;SHT30;62093;37.614;15.072;2022-10-20T04:30:49;19.98;64.12
73780;SHT30;62093;37.614;15.072;2022-10-20T04:33:15;19.95;64.30
73780;SHT30;62093;37.614;15.072;2022-10-20T04:35:41;19.95;64.15
73780;SHT30;62093;37.614;15.072;2022-10-20T04:38:08;19.97;64.37
73780;SHT30;62093;37.614;15.072;2022-10-20T04:40:34;19.95;64.23
73780;SHT30;62093;37.614;15.072;2022-10-20T04:43:00;19.97;64.41
73780;SHT30;62093;37.614;15.072;2022-10-20T04:45:26;19.93;64.53
73780;SHT30;62093;37.614;15.072;2022-10-20T04:47:53;19.94;64.33
73780;SHT30;62093;37.614;15.072;2022-10-20T04:50:19;19.90;64.58
73780;SHT30;62093;37.614;15.072;2022-10-20T04:52:57;19.97;64.58
73780;SHT30;62093;37.614;15.072;2022-10-20T04:55:24;19.98;64.16
73780;SHT30;62093;37.614;15.072;2022-10-20T04:57:50;19.94;64.45
73780;SHT30;62093;37.614;15.072;2022-10-20T05:00:16;19.95;64.41
73780;SHT30;62093;37.614;15.072;2022-10-20T05:02:42;19.95;64.46
73780;SHT30;62093;37.614;15.072;2022-10-20T05:05:08;19.94;64.13
73780;SHT30;62093;37.614;15.072;2022-10-20T05:07:34;19.95;64.41
73780;SHT30;62093;37.614;15.072;2022-10-20T05:10:00;19.93;64.18
73780;SHT30;62093;37.614;15.072;2022-10-20T05:12:26;19.98;64.48
73780;SHT30;62093;37.614;15.072;2022-10-20T05:14:52;19.95;64.11
73780;SHT30;62093;37.614;15.072;2022-10-20T05:17:18;19.93;64.21
73780;SHT30;62093;37.614;15.072;2022-10-20T05:19:45;19.94;64.38
73780;SHT30;62093;37.614;15.072;2022-10-20T05:22:11;19.95;64.30
73780;SHT30;62093;37.614;15.072;2022-10-20T05:24:37;19.95;64.38
73780;SHT30;62093;37.614;15.072;2022-10-20T05:27:03;20.00;64.52
73780;SHT30;62093;37.614;15.072;2022-10-20T05:29:29;19.91;64.09
73780;SHT30;62093;37.614;15.072;2022-10-20T05:31:55;19.93;64.35
73780;SHT30;62093;37.614;15.072;2022-10-20T05:34:21;19.95;64.37
73780;SHT30;62093;37.614;15.072;2022-10-20T05:36:47;19.93;64.38
73780;SHT30;62093;37.614;15.072;2022-10-20T05:39:13;19.97;64.12
73780;SHT30;62093;37.614;15.072;2022-10-20T05:41:39;20.00;64.13
73780;SHT30;62093;37.614;15.072;2022-10-20T05:44:06;19.95;64.10
73780;SHT30;62093;37.614;15.072;2022-10-20T05:46:36;19.93;63.89
73780;SHT30;62093;37.614;15.072;2022-10-20T05:49:06;19.97;64.09
73780;SHT30;62093;37.614;15.072;2022-10-20T05:51:35;19.94;64.20
73780;SHT30;62093;37.614;15.072;2022-10-20T05:54:02;19.95;64.26
73780;SHT30;62093;37.614;15.072;2022-10-20T05:56:29;19.97;63.99
73780;SHT30;62093;37.614;15.072;2022-10-20T05:58:57;19.95;64.26
73780;SHT30;62093;37.614;15.072;2022-10-20T06:01:28;19.95;64.25
73780;SHT30;62093;37.614;15.072;2022-10-20T06:04:04;19.95;64.07
73780;SHT30;62093;37.614;15.072;2022-10-20T06:06:31;19.95;63.82
73780;SHT30;62093;37.614;15.072;2022-10-20T06:08:58;19.94;64.10
73780;SHT30;62093;37.614;15.072;2022-10-20T06:11:25;19.94;64.04
73780;SHT30;62093;37.614;15.072;2022-10-20T06:13:52;19.94;64.41
73780;SHT30;62093;37.614;15.072;2022-10-20T06:16:21;19.97;64.25
73780;SHT30;62093;37.614;15.072;2022-10-20T06:18:47;19.94;64.56
73780;SHT30;62093;37.614;15.072;2022-10-20T06:21:19;19.94;64.57
73780;SHT30;62093;37.614;15.072;2022-10-20T06:23:45;19.98;64.49
73780;SHT30;62093;37.614;15.072;2022-10-20T06:26:14;20.00;64.48
73780;SHT30;62093;37.614;15.072;2022-10-20T06:28:45;20.00;64.00
73780;SHT30;62093;37.614;15.072;2022-10-20T06:31:22;20.01;64.37
73780;SHT30;62093;37.614;15.072;2022-10-20T06:33:50;20.01;64.25
73780;SHT30;62093;37.614;15.072;2022-10-20T06:36:17;19.97;64.12
73780;SHT30;62093;37.614;15.072;2022-10-20T06:38:44;20.01;64.23
73780;SHT30;62093;37.614;15.072;2022-10-20T06:41:13;20.03;64.17
73780;SHT30;62093;37.614;15.072;2022-10-20T06:43:40;20.00;64.15
73780;SHT30;62093;37.614;15.072;2022-10-20T06:46:09;19.98;64.28
73780;SHT30;62093;37.614;15.072;2022-10-20T06:48:35;20.00;64.42
73780;SHT30;62093;37.614;15.072;2022-10-20T06:51:14;20.01;64.27
73780;SHT30;62093;37.614;15.072;2022-10-20T06:53:41;20.03;64.33
73780;SHT30;62093;37.614;15.072;2022-10-20T06:56:12;20.05;64.48
73780;SHT30;62093;37.614;15.072;2022-10-20T06:58:40;20.03;64.38
73780;SHT30;62093;37.614;15.072;2022-10-20T07:01:08;20.07;64.37
73780;SHT30;62093;37.614;15.072;2022-10-20T07:03:35;20.07;64.30
73780;SHT30;62093;37.614;15.072;2022-10-20T07:06:02;20.08;64.35
73780;SHT30;62093;37.614;15.072;2022-10-20T07:08:30;20.08;64.33
73780;SHT30;62093;37.614;15.072;2022-10-20T07:11:09;20.10;64.10
73780;SHT30;62093;37.614;15.072;2022-10-20T07:13:36;20.13;64.03
73780;SHT30;62093;37.614;15.072;2022-10-20T07:16:04;20.10;63.87
73780;SHT30;62093;37.614;15.072;2022-10-20T07:18:31;20.10;64.34
73780;SHT30;62093;37.614;15.072;2022-10-20T07:20:58;20.11;63.99
73780;SHT30;62093;37.614;15.072;2022-10-20T07:23:25;20.14;64.07
73780;SHT30;62093;37.614;15.072;2022-10-20T07:25:58;20.15;64.14
73780;SHT30;62093;37.614;15.072;2022-10-20T07:28:24;20.17;64.15
73780;SHT30;62093;37.614;15.072;2022-10-20T07:30:50;20.17;63.99
73780;SHT30;62093;37.614;15.072;2022-10-20T07:33:19;20.18;64.05
73780;SHT30;62093;37.614;15.072;2022-10-20T07:35:46;20.20;64.03
73780;SHT30;62093;37.614;15.072;2022-10-20T07:38:15;20.20;63.82
73780;SHT30;62093;37.614;15.072;2022-10-20T07:40:41;20.20;63.98
73780;SHT30;62093;37.614;15.072;2022-10-20T07:43:07;20.20;63.98
73780;SHT30;62093;37.614;15.072;2022-10-20T07:45:33;20.18;64.00
73780;SHT30;62093;37.614;15.072;2022-10-20T07:47:59;20.21;63.89
73780;SHT30;62093;37.614;15.072;2022-10-20T07:50:25;20.27;63.66
73780;SHT30;62093;37.614;15.072;2022-10-20T07:52:51;20.27;63.72
73780;SHT30;62093;37.614;15.072;2022-10-20T07:55:18;20.29;63.95
73780;SHT30;62093;37.614;15.072;2022-10-20T07:57:45;20.28;63.94
73780;SHT30;62093;37.614;15.072;2022-10-20T08:00:11;20.29;63.66
73780;SHT30;62093;37.614;15.072;2022-10-20T08:02:38;20.31;63.58
73780;SHT30;62093;37.614;15.072;2022-10-20T08:05:08;20.29;63.67
73780;SHT30;62093;37.614;15.072;2022-10-20T08:07:34;20.31;63.47
73780;SHT30;62093;37.614;15.072;2022-10-20T08:10:00;20.29;63.57
73780;SHT30;62093;37.614;15.072;2022-10-20T08:12:26;20.29;63.67
73780;SHT30;62093;37.614;15.072;2022-10-20T08:14:52;20.34;63.67
73780;SHT30;62093;37.614;15.072;2022-10-20T08:17:18;20.35;63.64
73780;SHT30;62093;37.614;15.072;2022-10-20T08:19:44;20.35;63.71
73780;SHT30;62093;37.614;15.072;2022-10-20T08:22:10;20.36;63.69
73780;SHT30;62093;37.614;15.072;2022-10-20T08:24:36;20.35;63.61
73780;SHT30;62093;37.614;15.072;2022-10-20T08:27:02;20.38;63.54
73780;SHT30;62093;37.614;15.072;2022-10-20T08:29:28;20.41;63.47
73780;SHT30;62093;37.614;15.072;2022-10-20T08:31:56;20.39;63.56
73780;SHT30;62093;37.614;15.072;2022-10-20T08:34:22;20.41;63.55
73780;SHT30;62093;37.614;15.072;2022-10-20T08:36:48;20.42;63.58
73780;SHT30;62093;37.614;15.072;2022-10-20T08:39:14;20.44;63.53
73780;SHT30;62093;37.614;15.072;2022-10-20T08:41:46;20.44;63.47
73780;SHT30;62093;37.614;15.072;2022-10-20T08:44:20;20.44;63.55
73780;SHT30;62093;37.614;15.072;2022-10-20T08:46:48;20.46;63.59
73780;SHT30;62093;37.614;15.072;2022-10-20T08:49:21;20.45;63.59
73780;SHT30;62093;37.614;15.072;2022-10-20T08:51:48;20.46;63.64
73780;SHT30;62093;37.614;15.072;2022-10-20T08:54:15;20.45;63.63
73780;SHT30;62093;37.614;15.072;2022-10-20T08:56:45;20.48;63.55
73780;SHT30;62093;37.614;15.072;2022-10-20T08:59:27;20.46;63.47
73780;SHT30;62093;37.614;15.072;2022-10-20T09:01:55;20.51;63.47
73780;SHT30;62093;37.614;15.072;2022-10-20T09:04:41;20.48;63.54
73780;SHT30;62093;37.614;15.072;2022-10-20T09:09:49;20.49;63.61
73780;SHT30;62093;37.614;15.072;2022-10-20T09:12:16;20.51;63.61
73780;SHT30;62093;37.614;15.072;2022-10-20T09:14:43;20.52;63.61
73780;SHT30;62093;37.614;15.072;2022-10-20T09:17:16;20.52;63.58
73780;SHT30;62093;37.614;15.072;2022-10-20T09:19:47;20.51;63.57
73780;SHT30;62093;37.614;15.072;2022-10-20T09:22:16;20.55;63.61
73780;SHT30;62093;37.614;15.072;2022-10-20T09:24:45;20.56;63.48
73780;SHT30;62093;37.614;15.072;2022-10-20T09:27:23;20.56;63.51
73780;SHT30;62093;37.614;15.072;2022-10-20T09:29:55;20.55;63.48
73780;SHT30;62093;37.614;15.072;2022-10-20T09:32:33;20.55;63.46
73780;SHT30;62093;37.614;15.072;2022-10-20T09:38:01;20.58;63.50
73780;SHT30;62093;37.614;15.072;2022-10-20T09:40:31;20.59;63.50
73780;SHT30;62093;37.614;15.072;2022-10-20T09:43:06;20.61;63.47
73780;SHT30;62093;37.614;15.072;2022-10-20T09:45:35;20.59;63.46
73780;SHT30;62093;37.614;15.072;2022-10-20T09:48:20;20.61;63.44
73780;SHT30;62093;37.614;15.072;2022-10-20T09:50:50;20.62;63.43
73780;SHT30;62093;37.614;15.072;2022-10-20T09:53:32;20.62;63.39
73780;SHT30;62093;37.614;15.072;2022-10-20T09:55:59;20.64;63.37
73780;SHT30;62093;37.614;15.072;2022-10-20T10:00:58;20.72;63.31
73780;SHT30;62093;37.614;15.072;2022-10-20T10:03:25;20.71;63.24
73780;SHT30;62093;37.614;15.072;2022-10-20T10:05:56;20.73;63.18
73780;SHT30;62093;37.614;15.072;2022-10-20T10:08:25;20.73;63.16
73780;SHT30;62093;37.614;15.072;2022-10-20T10:11:14;20.73;63.17
73780;SHT30;62093;37.614;15.072;2022-10-20T10:13:43;20.73;63.16
73780;SHT30;62093;37.614;15.072;2022-10-20T10:16:13;20.76;63.15
73780;SHT30;62093;37.614;15.072;2022-10-20T10:18:41;20.73;63.15
73780;SHT30;62093;37.614;15.072;2022-10-20T10:21:10;20.76;63.14
73780;SHT30;62093;37.614;15.072;2022-10-20T10:23:53;20.77;63.14
73780;SHT30;62093;37.614;15.072;2022-10-20T10:26:41;20.77;63.15
73780;SHT30;62093;37.614;15.072;2022-10-20T10:29:26;20.77;63.11
73780;SHT30;62093;37.614;15.072;2022-10-20T10:34:43;20.80;63.08
73780;SHT30;62093;37.614;15.072;2022-10-20T10:37:12;20.83;63.01
73780;SHT30;62093;37.614;15.072;2022-10-20T10:39:41;20.80;63.06
73780;SHT30;62093;37.614;15.072;2022-10-20T10:45:10;20.82;63.02
73780;SHT30;62093;37.614;15.072;2022-10-20T10:47:57;20.83;63.05
73780;SHT30;62093;37.614;15.072;2022-10-20T10:50:43;20.79;63.10
73780;SHT30;62093;37.614;15.072;2022-10-20T10:53:30;20.79;63.09
73780;SHT30;62093;37.614;15.072;2022-10-20T10:56:12;20.80;63.14
73780;SHT30;62093;37.614;15.072;2022-10-20T11:04:33;20.83;63.03
73780;SHT30;62093;37.614;15.072;2022-10-20T11:26:43;20.85;62.95
73780;SHT30;62093;37.614;15.072;2022-10-20T11:29:26;20.87;63.02
73780;SHT30;62093;37.614;15.072;2022-10-20T11:34:36;20.89;62.99
73780;SHT30;62093;37.614;15.072;2022-10-20T11:39:59;20.87;63.02
73780;SHT30;62093;37.614;15.072;2022-10-20T11:43:04;20.90;62.98
73780;SHT30;62093;37.614;15.072;2022-10-20T11:45:44;20.87;62.99
73780;SHT30;62093;37.614;15.072;2022-10-20T11:48:17;20.90;63.00
73780;SHT30;62093;37.614;15.072;2022-10-20T11:50:57;20.92;62.99
73780;SHT30;62093;37.614;15.072;2022-10-20T12:02:07;20.89;63.02
73780;SHT30;62093;37.614;15.072;2022-10-20T12:05:18;20.89;63.05
73780;SHT30;62093;37.614;15.072;2022-10-20T12:19:25;20.97;62.93
73780;SHT30;62093;37.614;15.072;2022-10-20T12:34:56;20.97;62.81
73780;SHT30;62093;37.614;15.072;2022-10-20T12:39:49;20.99;62.76
73780;SHT30;62093;37.614;15.072;2022-10-20T12:42:20;20.96;62.82
73780;SHT30;62093;37.614;15.072;2022-10-20T12:44:47;20.97;62.83
73780;SHT30;62093;37.614;15.072;2022-10-20T12:47:24;20.97;62.83
73780;SHT30;62093;37.614;15.072;2022-10-20T12:50:19;20.99;62.75
73780;SHT30;62093;37.614;15.072;2022-10-20T12:52:48;20.99;62.71
73780;SHT30;62093;37.614;15.072;2022-10-20T12:55:18;21.00;62.74
73780;SHT30;62093;37.614;15.072;2022-10-20T12:57:46;21.00;62.76
73780;SHT30;62093;37.614;15.072;2022-10-20T13:02:54;20.97;62.73
73780;SHT30;62093;37.614;15.072;2022-10-20T13:10:46;21.00;62.78
73780;SHT30;62093;37.614;15.072;2022-10-20T13:23:59;21.03;62.72
73780;SHT30;62093;37.614;15.072;2022-10-20T13:29:15;21.06;62.68
73780;SHT30;62093;37.614;15.072;2022-10-20T13:34:25;21.03;62.70
73780;SHT30;62093;37.614;15.072;2022-10-20T13:37:30;21.06;62.68
73780;SHT30;62093;37.614;15.072;2022-10-20T13:51:21;21.07;62.74
73780;SHT30;62093;37.614;15.072;2022-10-20T13:53:50;21.10;62.67
73780;SHT30;62093;37.614;15.072;2022-10-20T13:56:19;21.11;62.88
73780;SHT30;62093;37.614;15.072;2022-10-20T14:01:48;21.08;62.95
73780;SHT30;62093;37.614;15.072;2022-10-20T14:04:33;21.08;62.98
73780;SHT30;62093;37.614;15.072;2022-10-20T14:07:11;21.10;62.96
73780;SHT30;62093;37.614;15.072;2022-10-20T14:09:41;21.11;63.00
73780;SHT30;62093;37.614;15.072;2022-10-20T14:12:12;21.26;63.04
73780;SHT30;62093;37.614;15.072;2022-10-20T14:14:43;21.34;62.72
73780;SHT30;62093;37.614;15.072;2022-10-20T14:17:20;21.24;62.62
73780;SHT30;62093;37.614;15.072;2022-10-20T14:19:47;21.23;62.91
73780;SHT30;62093;37.614;15.072;2022-10-20T14:22:20;21.20;63.05
73780;SHT30;62093;37.614;15.072;2022-10-20T14:24:50;21.22;63.19
73780;SHT30;62093;37.614;15.072;2022-10-20T14:27:23;21.22;63.04
73780;SHT30;62093;37.614;15.072;2022-10-20T14:29:51;21.19;63.22
73780;SHT30;62093;37.614;15.072;2022-10-20T14:32:24;21.20;63.27
73780;SHT30;62093;37.614;15.072;2022-10-20T14:34:55;21.22;63.33
73780;SHT30;62093;37.614;15.072;2022-10-20T14:37:29;21.19;63.33
73780;SHT30;62093;37.614;15.072;2022-10-20T14:40:04;21.22;63.39
73780;SHT30;62093;37.614;15.072;2022-10-20T14:42:31;21.19;63.49
73780;SHT30;62093;37.614;15.072;2022-10-20T14:45:00;21.22;63.45
73780;SHT30;62093;37.614;15.072;2022-10-20T14:47:32;21.17;63.53
73780;SHT30;62093;37.614;15.072;2022-10-20T14:49:59;21.22;63.62
73780;SHT30;62093;37.614;15.072;2022-10-20T14:52:30;21.20;63.53
73780;SHT30;62093;37.614;15.072;2022-10-20T14:55:00;21.23;63.58
73780;SHT30;62093;37.614;15.072;2022-10-20T14:57:29;21.20;63.63
73780;SHT30;62093;37.614;15.072;2022-10-20T14:59:58;21.20;63.63
73780;SHT30;62093;37.614;15.072;2022-10-20T15:02:35;21.22;63.66
73780;SHT30;62093;37.614;15.072;2022-10-20T15:07:55;21.23;63.74
73780;SHT30;62093;37.614;15.072;2022-10-20T15:10:24;21.20;63.74
73780;SHT30;62093;37.614;15.072;2022-10-20T15:12:52;21.17;63.69
73780;SHT30;62093;37.614;15.072;2022-10-20T15:15:25;21.19;63.76
73780;SHT30;62093;37.614;15.072;2022-10-20T15:18:15;21.20;63.71
73780;SHT30;62093;37.614;15.072;2022-10-20T15:20:44;21.17;63.70
73780;SHT30;62093;37.614;15.072;2022-10-20T15:23:12;21.20;63.79
73780;SHT30;62093;37.614;15.072;2022-10-20T15:25:45;21.20;63.85
73780;SHT30;62093;37.614;15.072;2022-10-20T15:28:30;21.16;63.86
73780;SHT30;62093;37.614;15.072;2022-10-20T15:31:00;21.16;63.84
73780;SHT30;62093;37.614;15.072;2022-10-20T15:33:27;21.16;63.93
73780;SHT30;62093;37.614;15.072;2022-10-20T15:35:53;21.16;63.88
73780;SHT30;62093;37.614;15.072;2022-10-20T15:38:20;21.16;63.88
73780;SHT30;62093;37.614;15.072;2022-10-20T15:40:46;21.11;64.00
73780;SHT30;62093;37.614;15.072;2022-10-20T15:43:16;21.14;63.97
73780;SHT30;62093;37.614;15.072;2022-10-20T15:45:46;21.14;63.95
73780;SHT30;62093;37.614;15.072;2022-10-20T15:48:13;21.13;64.07
73780;SHT30;62093;37.614;15.072;2022-10-20T15:50:39;21.14;64.16
73780;SHT30;62093;37.614;15.072;2022-10-20T15:53:06;21.14;64.14
73780;SHT30;62093;37.614;15.072;2022-10-20T15:55:34;21.13;64.16
73780;SHT30;62093;37.614;15.072;2022-10-20T15:58:02;21.11;64.15
73780;SHT30;62093;37.614;15.072;2022-10-20T16:00:28;21.13;64.14
73780;SHT30;62093;37.614;15.072;2022-10-20T16:02:54;21.11;64.20
73780;SHT30;62093;37.614;15.072;2022-10-20T16:05:22;21.13;64.26
73780;SHT30;62093;37.614;15.072;2022-10-20T16:07:49;21.13;64.23
73780;SHT30;62093;37.614;15.072;2022-10-20T16:10:18;21.11;64.37
73780;SHT30;62093;37.614;15.072;2022-10-20T16:12:46;21.13;64.36
73780;SHT30;62093;37.614;15.072;2022-10-20T16:15:12;21.11;64.35
73780;SHT30;62093;37.614;15.072;2022-10-20T16:17:38;21.11;64.26
73780;SHT30;62093;37.614;15.072;2022-10-20T16:20:11;21.13;64.39
73780;SHT30;62093;37.614;15.072;2022-10-20T16:22:38;21.13;64.49
73780;SHT30;62093;37.614;15.072;2022-10-20T16:25:05;21.14;64.51
73780;SHT30;62093;37.614;15.072;2022-10-20T16:27:32;21.11;64.44
73780;SHT30;62093;37.614;15.072;2022-10-20T16:29:58;21.11;64.46
73780;SHT30;62093;37.614;15.072;2022-10-20T16:32:25;21.13;64.39
73780;SHT30;62093;37.614;15.072;2022-10-20T16:34:51;21.11;64.32
73780;SHT30;62093;37.614;15.072;2022-10-20T16:37:17;21.11;64.40
73780;SHT30;62093;37.614;15.072;2022-10-20T16:39:43;21.10;64.48
73780;SHT30;62093;37.614;15.072;2022-10-20T16:42:09;21.13;64.47
73780;SHT30;62093;37.614;15.072;2022-10-20T16:44:35;21.10;64.45
73780;SHT30;62093;37.614;15.072;2022-10-20T16:47:00;21.11;64.52
73780;SHT30;62093;37.614;15.072;2022-10-20T16:49:27;21.10;64.48
73780;SHT30;62093;37.614;15.072;2022-10-20T16:51:53;21.11;64.47
73780;SHT30;62093;37.614;15.072;2022-10-20T16:54:19;21.11;64.48
73780;SHT30;62093;37.614;15.072;2022-10-20T16:56:45;21.10;64.58
73780;SHT30;62093;37.614;15.072;2022-10-20T16:59:11;21.10;64.56
73780;SHT30;62093;37.614;15.072;2022-10-20T17:01:37;21.10;64.57
73780;SHT30;62093;37.614;15.072;2022-10-20T17:04:03;21.10;64.61
73780;SHT30;62093;37.614;15.072;2022-10-20T17:06:29;21.11;64.57
73780;SHT30;62093;37.614;15.072;2022-10-20T17:08:57;21.10;64.58
73780;SHT30;62093;37.614;15.072;2022-10-20T17:11:26;21.08;64.57
73780;SHT30;62093;37.614;15.072;2022-10-20T17:13:53;21.10;64.57
73780;SHT30;62093;37.614;15.072;2022-10-20T17:16:23;21.10;64.53
73780;SHT30;62093;37.614;15.072;2022-10-20T17:18:54;21.11;64.60
73780;SHT30;62093;37.614;15.072;2022-10-20T17:21:20;21.08;64.66
73780;SHT30;62093;37.614;15.072;2022-10-20T17:23:46;21.10;64.61
73780;SHT30;62093;37.614;15.072;2022-10-20T17:26:23;21.08;64.61
73780;SHT30;62093;37.614;15.072;2022-10-20T17:28:56;21.11;64.63
73780;SHT30;62093;37.614;15.072;2022-10-20T17:31:22;21.10;64.66
73780;SHT30;62093;37.614;15.072;2022-10-20T17:33:48;21.07;64.69
73780;SHT30;62093;37.614;15.072;2022-10-20T17:36:14;21.07;64.65
73780;SHT30;62093;37.614;15.072;2022-10-20T17:38:41;21.08;64.70
73780;SHT30;62093;37.614;15.072;2022-10-20T17:41:12;21.08;64.72
73780;SHT30;62093;37.614;15.072;2022-10-20T17:43:39;21.07;64.74
73780;SHT30;62093;37.614;15.072;2022-10-20T17:46:08;21.07;64.83
73780;SHT30;62093;37.614;15.072;2022-10-20T17:48:36;21.04;64.80
73780;SHT30;62093;37.614;15.072;2022-10-20T17:51:07;21.06;64.87
73780;SHT30;62093;37.614;15.072;2022-10-20T17:53:34;21.04;64.83
73780;SHT30;62093;37.614;15.072;2022-10-20T17:56:15;21.04;64.80
73780;SHT30;62093;37.614;15.072;2022-10-20T17:58:47;21.11;64.66
73780;SHT30;62093;37.614;15.072;2022-10-20T18:01:14;21.08;64.79
73780;SHT30;62093;37.614;15.072;2022-10-20T18:03:43;21.04;64.86